createdAt,value
2022-11-03T00:00:37.176Z,26.20
2022-11-03T00:01:37.511Z,25.30
2022-11-03T00:02:37.249Z,25.10
2022-11-03T00:03:37.237Z,20.40
2022-11-03T00:04:37.230Z,26.10
2022-11-03T00:05:37.300Z,21.40
2022-11-03T00:06:37.255Z,27.00
2022-11-03T00:07:37.296Z,26.70
2022-11-03T00:08:37.292Z,24.20
2022-11-03T00:09:37.355Z,30.60
2022-11-03T00:10:37.331Z,21.00
2022-11-03T00:11:37.353Z,19.90
2022-11-03T00:12:37.356Z,21.00
2022-11-03T00:13:37.384Z,30.00
2022-11-03T00:14:37.380Z,22.90
2022-11-03T00:15:37.554Z,31.30
2022-11-03T00:16:37.395Z,23.50
2022-11-03T00:17:37.427Z,24.20
2022-11-03T00:18:37.426Z,30.50
2022-11-03T00:19:37.594Z,31.10
2022-11-03T00:20:37.475Z,30.80
2022-11-03T00:21:37.629Z,24.00
2022-11-03T00:22:37.481Z,20.30
2022-11-03T00:23:37.512Z,23.90
2022-11-03T00:24:37.497Z,31.00
2022-11-03T00:25:37.534Z,26.40
2022-11-03T00:26:37.529Z,27.90
2022-11-03T00:27:37.654Z,25.00
2022-11-03T00:28:37.571Z,26.70
2022-11-03T00:29:37.599Z,25.50
2022-11-03T00:30:37.627Z,25.50
2022-11-03T00:31:37.624Z,23.50
2022-11-03T00:32:37.630Z,25.10
2022-11-03T00:33:37.783Z,31.40
2022-11-03T00:34:37.652Z,25.30
2022-11-03T00:35:37.674Z,27.20
2022-11-03T00:36:37.710Z,30.20
2022-11-03T00:37:37.714Z,27.90
2022-11-03T00:38:37.706Z,30.00
2022-11-03T00:39:37.834Z,25.80
2022-11-03T00:40:37.784Z,27.10
2022-11-03T00:41:37.772Z,25.00
2022-11-03T00:42:37.770Z,21.80
2022-11-03T00:43:37.820Z,26.30
2022-11-03T00:44:37.792Z,21.80
2022-11-03T00:45:37.949Z,20.50
2022-11-03T00:46:37.821Z,28.10
2022-11-03T00:47:37.851Z,25.50
2022-11-03T00:48:37.831Z,22.00
2022-11-03T00:49:37.879Z,26.30
2022-11-03T00:50:37.920Z,27.20
2022-11-03T00:51:38.002Z,29.20
2022-11-03T00:52:37.904Z,30.90
2022-11-03T00:53:37.936Z,31.20
2022-11-03T00:54:37.920Z,28.70
2022-11-03T00:55:37.961Z,21.10
2022-11-03T00:56:37.943Z,28.90
2022-11-03T00:57:38.096Z,27.60
2022-11-03T00:58:37.980Z,32.20
2022-11-03T00:59:38.023Z,28.20
2022-11-03T01:00:39.170Z,31.90
2022-11-03T01:01:43.852Z,24.00
2022-11-03T01:02:39.231Z,33.40
2022-11-03T01:03:39.075Z,23.50
2022-11-03T01:04:39.045Z,23.70
2022-11-03T01:05:39.074Z,25.60
2022-11-03T01:06:39.058Z,28.50
2022-11-03T01:07:39.107Z,27.90
2022-11-03T01:08:39.128Z,29.10
2022-11-03T01:09:39.127Z,28.70
2022-11-03T01:10:39.104Z,21.10
2022-11-03T01:11:39.191Z,28.00
2022-11-03T01:12:39.146Z,29.50
2022-11-03T01:13:39.224Z,25.80
2022-11-03T01:14:39.193Z,27.30
2022-11-03T01:15:39.202Z,31.60
2022-11-03T01:16:39.203Z,24.10
2022-11-03T01:17:39.239Z,30.30
2022-11-03T01:18:39.250Z,31.30
2022-11-03T01:19:39.253Z,27.90
2022-11-03T01:20:39.246Z,23.60
2022-11-03T01:21:39.319Z,27.80
2022-11-03T01:22:39.296Z,28.80
2022-11-03T01:23:39.335Z,28.00
2022-11-03T01:24:39.303Z,31.50
2022-11-03T01:25:39.345Z,32.10
2022-11-03T01:26:39.364Z,25.80
2022-11-03T01:27:39.374Z,19.00
2022-11-03T01:28:39.505Z,25.70
2022-11-03T01:29:39.405Z,34.00
2022-11-03T01:30:39.391Z,27.90
2022-11-03T01:31:39.595Z,26.50
2022-11-03T01:32:39.436Z,26.20
2022-11-03T01:33:39.483Z,32.10
2022-11-03T01:34:39.497Z,24.90
2022-11-03T01:35:39.508Z,37.40
2022-11-03T01:36:39.530Z,30.80
2022-11-03T01:37:39.763Z,26.70
2022-11-03T01:38:43.431Z,26.30
2022-11-03T01:39:43.579Z,27.10
2022-11-03T01:40:43.554Z,27.90
2022-11-03T01:41:43.598Z,18.90
2022-11-03T01:42:43.561Z,19.80
2022-11-03T01:43:43.570Z,29.00
2022-11-03T01:44:43.540Z,26.30
2022-11-03T01:45:43.613Z,23.30
2022-11-03T01:46:43.583Z,29.00
2022-11-03T01:47:43.602Z,28.90
2022-11-03T01:48:43.582Z,27.60
2022-11-03T01:49:43.603Z,22.30
2022-11-03T01:50:43.589Z,24.40
2022-11-03T01:51:43.782Z,27.40
2022-11-03T01:52:43.603Z,26.90
2022-11-03T01:53:48.505Z,31.30
2022-11-03T01:54:48.658Z,27.20
2022-11-03T01:55:48.636Z,27.20
2022-11-03T01:56:48.672Z,30.80
2022-11-03T01:57:48.645Z,26.20
2022-11-03T01:58:48.668Z,20.60
2022-11-03T01:59:48.655Z,29.20
2022-11-03T02:00:48.777Z,29.00
2022-11-03T02:01:49.075Z,29.60
2022-11-03T02:02:48.713Z,24.10
2022-11-03T02:03:48.684Z,21.90
2022-11-03T02:04:48.701Z,23.20
2022-11-03T02:05:48.675Z,29.60
2022-11-03T02:06:48.713Z,34.40
2022-11-03T02:07:48.712Z,24.10
2022-11-03T02:08:48.781Z,23.60
2022-11-03T02:09:48.730Z,30.10
2022-11-03T02:10:53.722Z,32.20
2022-11-03T02:11:53.908Z,22.80
2022-11-03T02:12:53.745Z,23.70
2022-11-03T02:13:53.799Z,23.50
2022-11-03T02:14:53.762Z,32.00
2022-11-03T02:15:53.789Z,28.10
2022-11-03T02:16:53.787Z,29.30
2022-11-03T02:17:53.796Z,25.20
2022-11-03T02:18:53.773Z,32.40
2022-11-03T02:19:53.802Z,32.10
2022-11-03T02:20:53.769Z,27.00
2022-11-03T02:21:53.792Z,26.90
2022-11-03T02:22:53.802Z,27.00
2022-11-03T02:23:53.809Z,25.40
2022-11-03T02:24:54.374Z,26.30
2022-11-03T02:25:53.959Z,28.30
2022-11-03T02:26:53.825Z,26.60
2022-11-03T02:27:53.819Z,25.50
2022-11-03T02:29:53.801Z,25.70
2022-11-03T02:30:53.799Z,24.00
2022-11-03T02:31:53.819Z,26.40
2022-11-03T02:32:53.771Z,24.00
2022-11-03T02:33:53.913Z,31.00
2022-11-03T02:34:53.788Z,31.40
2022-11-03T02:35:53.792Z,32.70
2022-11-03T02:36:53.772Z,25.00
2022-11-03T02:37:53.808Z,25.10
2022-11-03T02:38:53.762Z,24.20
2022-11-03T02:39:53.771Z,24.00
2022-11-03T02:40:53.773Z,26.10
2022-11-03T02:41:53.811Z,27.50
2022-11-03T02:42:53.776Z,29.40
2022-11-03T02:43:53.919Z,23.90
2022-11-03T02:44:53.799Z,27.70
2022-11-03T02:45:53.804Z,31.90
2022-11-03T02:46:53.784Z,24.30
2022-11-03T02:47:53.817Z,28.30
2022-11-03T02:48:53.788Z,30.50
2022-11-03T02:50:53.786Z,25.90
2022-11-03T02:51:53.814Z,27.20
2022-11-03T02:52:53.793Z,24.80
2022-11-03T02:53:53.838Z,22.30
2022-11-03T02:54:53.806Z,30.40
2022-11-03T02:55:53.958Z,28.60
2022-11-03T02:56:53.835Z,29.60
2022-11-03T02:57:53.857Z,27.30
2022-11-03T02:58:53.828Z,25.60
2022-11-03T02:59:53.867Z,25.00
2022-11-03T03:00:54.511Z,29.40
2022-11-03T03:01:53.926Z,29.30
2022-11-03T03:02:53.837Z,23.20
2022-11-03T03:03:53.860Z,31.50
2022-11-03T03:06:47.935Z,26.50
2022-11-03T03:07:47.908Z,28.60
2022-11-03T03:08:47.846Z,25.00
2022-11-03T03:09:47.863Z,26.30
2022-11-03T03:10:47.850Z,23.70
2022-11-03T03:11:47.868Z,21.40
2022-11-03T03:12:47.872Z,23.00
2022-11-03T03:13:47.882Z,28.70
2022-11-03T03:14:47.863Z,25.00
2022-11-03T03:15:47.890Z,25.40
2022-11-03T03:16:47.883Z,27.30
2022-11-03T03:17:47.997Z,25.50
2022-11-03T03:18:47.871Z,26.40
2022-11-03T03:19:47.912Z,27.20
2022-11-03T03:20:47.887Z,27.00
2022-11-03T03:21:47.933Z,30.70
2022-11-03T03:22:47.909Z,25.70
2022-11-03T03:23:48.046Z,34.90
2022-11-03T03:24:47.989Z,23.30
2022-11-03T03:25:47.964Z,31.10
2022-11-03T03:26:47.956Z,26.90
2022-11-03T03:27:48.020Z,28.90
2022-11-03T03:28:47.985Z,30.90
2022-11-03T03:29:48.022Z,26.50
2022-11-03T03:30:47.996Z,29.30
2022-11-03T03:31:48.026Z,22.20
2022-11-03T03:32:48.020Z,24.20
2022-11-03T03:33:48.291Z,22.10
2022-11-03T03:34:48.096Z,20.00
2022-11-03T03:35:52.945Z,28.10
2022-11-03T03:36:53.678Z,25.70
2022-11-03T03:37:53.074Z,20.00
2022-11-03T03:38:57.963Z,22.70
2022-11-03T03:39:58.248Z,23.00
2022-11-03T03:40:58.077Z,27.60
2022-11-03T03:41:58.096Z,20.30
2022-11-03T03:42:58.110Z,24.30
2022-11-03T03:43:58.187Z,21.10
2022-11-03T03:44:58.103Z,26.20
2022-11-03T03:45:58.127Z,21.10
2022-11-03T03:46:58.093Z,28.30
2022-11-03T03:47:58.269Z,27.20
2022-11-03T03:48:58.115Z,21.90
2022-11-03T03:49:58.148Z,22.10
2022-11-03T03:50:58.127Z,28.10
2022-11-03T03:51:58.152Z,27.30
2022-11-03T03:52:58.129Z,29.20
2022-11-03T03:53:58.176Z,25.50
2022-11-03T03:54:58.152Z,29.20
2022-11-03T03:55:58.306Z,27.70
2022-11-03T03:56:58.141Z,23.70
2022-11-03T03:58:00.469Z,24.20
2022-11-03T03:58:58.217Z,29.80
2022-11-03T03:59:58.193Z,27.00
2022-11-03T04:00:58.241Z,29.70
2022-11-03T04:01:58.458Z,19.40
2022-11-03T04:02:58.225Z,25.60
2022-11-03T04:03:58.190Z,30.60
2022-11-03T04:05:02.169Z,25.80
2022-11-03T04:06:02.249Z,24.20
2022-11-03T04:07:02.274Z,28.70
2022-11-03T04:08:02.262Z,24.00
2022-11-03T04:09:02.417Z,26.00
2022-11-03T04:10:02.299Z,20.90
2022-11-03T04:11:02.298Z,20.80
2022-11-03T04:12:02.353Z,29.00
2022-11-03T04:13:02.276Z,25.40
2022-11-03T04:14:02.304Z,22.50
2022-11-03T04:15:02.311Z,20.00
2022-11-03T04:16:02.303Z,19.90
2022-11-03T04:17:02.309Z,24.10
2022-11-03T04:18:02.747Z,25.80
2022-11-03T04:19:02.327Z,28.10
2022-11-03T04:20:02.395Z,21.40
2022-11-03T04:21:02.352Z,21.60
2022-11-03T04:22:02.372Z,26.10
2022-11-03T04:23:02.360Z,18.50
2022-11-03T04:24:02.423Z,31.60
2022-11-03T04:25:02.393Z,20.20
2022-11-03T04:26:02.438Z,25.00
2022-11-03T04:27:02.418Z,24.70
2022-11-03T04:28:02.453Z,23.40
2022-11-03T04:29:02.476Z,20.10
2022-11-03T04:30:02.615Z,21.10
2022-11-03T04:31:02.435Z,19.20
2022-11-03T04:32:02.460Z,22.20
2022-11-03T04:33:03.456Z,22.00
2022-11-03T04:34:03.488Z,20.90
2022-11-03T04:35:03.478Z,19.90
2022-11-03T04:36:03.500Z,28.40
2022-11-03T04:37:03.490Z,21.20
2022-11-03T04:38:03.735Z,25.80
2022-11-03T04:39:03.509Z,21.90
2022-11-03T04:40:03.557Z,22.70
2022-11-03T04:41:03.504Z,23.00
2022-11-03T04:42:03.536Z,24.50
2022-11-03T04:43:03.669Z,25.60
2022-11-03T04:44:03.548Z,22.30
2022-11-03T04:45:03.551Z,18.00
2022-11-03T04:46:03.597Z,24.00
2022-11-03T04:47:03.642Z,22.10
2022-11-03T04:48:03.595Z,24.30
2022-11-03T04:49:03.638Z,22.80
2022-11-03T04:50:03.640Z,21.90
2022-11-03T04:51:04.020Z,18.30
2022-11-03T04:52:03.639Z,28.40
2022-11-03T04:53:03.797Z,23.40
2022-11-03T04:54:03.652Z,23.50
2022-11-03T04:55:03.657Z,24.70
2022-11-03T04:56:07.358Z,23.50
2022-11-03T04:57:03.818Z,27.70
2022-11-03T04:58:03.697Z,23.80
2022-11-03T04:59:03.836Z,24.60
2022-11-03T05:01:08.668Z,27.20
2022-11-03T05:03:09.096Z,20.80
2022-11-03T05:04:08.739Z,21.00
2022-11-03T05:05:08.733Z,22.90
2022-11-03T05:06:08.755Z,22.30
2022-11-03T05:07:08.749Z,22.00
2022-11-03T05:08:08.902Z,21.70
2022-11-03T05:09:08.907Z,23.50
2022-11-03T05:10:08.783Z,22.30
2022-11-03T05:11:08.770Z,24.90
2022-11-03T05:12:08.791Z,17.80
2022-11-03T05:13:09.083Z,18.90
2022-11-03T05:14:08.893Z,19.90
2022-11-03T05:15:08.789Z,27.90
2022-11-03T05:16:08.838Z,25.70
2022-11-03T05:18:13.701Z,22.90
2022-11-03T05:19:13.843Z,24.60
2022-11-03T05:20:13.871Z,23.30
2022-11-03T05:21:13.832Z,23.80
2022-11-03T05:22:13.812Z,23.20
2022-11-03T05:23:13.846Z,22.70
2022-11-03T05:25:13.920Z,19.80
2022-11-03T05:26:13.865Z,24.50
2022-11-03T05:27:13.864Z,20.60
2022-11-03T05:28:14.141Z,22.80
2022-11-03T05:29:13.989Z,26.50
2022-11-03T05:30:13.909Z,28.00
2022-11-03T05:31:13.915Z,20.40
2022-11-03T05:32:13.898Z,26.70
2022-11-03T05:33:13.922Z,25.60
2022-11-03T05:34:13.893Z,19.80
2022-11-03T05:35:13.951Z,25.00
2022-11-03T05:36:13.916Z,24.30
2022-11-03T05:37:13.958Z,19.50
2022-11-03T05:38:13.934Z,23.00
2022-11-03T05:39:13.949Z,24.70
2022-11-03T05:40:13.974Z,25.00
2022-11-03T05:41:14.059Z,21.30
2022-11-03T05:42:13.940Z,18.40
2022-11-03T05:43:13.966Z,27.00
2022-11-03T05:44:13.967Z,21.50
2022-11-03T05:45:13.999Z,22.40
2022-11-03T05:46:14.453Z,23.20
2022-11-03T05:47:14.030Z,20.10
2022-11-03T05:48:14.017Z,24.60
2022-11-03T05:49:14.045Z,21.50
2022-11-03T05:50:14.153Z,23.20
2022-11-03T05:51:14.059Z,23.60
2022-11-03T05:52:14.180Z,21.50
2022-11-03T05:53:14.074Z,26.40
2022-11-03T05:54:18.600Z,21.00
2022-11-03T05:55:14.083Z,23.70
2022-11-03T05:56:14.069Z,24.60
2022-11-03T05:57:14.105Z,20.20
2022-11-03T05:58:14.136Z,19.90
2022-11-03T05:59:14.115Z,23.80
2022-11-03T06:00:14.105Z,20.60
2022-11-03T06:01:14.325Z,20.70
2022-11-03T06:02:14.342Z,20.50
2022-11-03T06:03:14.233Z,18.90
2022-11-03T06:04:14.124Z,24.50
2022-11-03T06:05:20.030Z,19.40
2022-11-03T06:06:20.124Z,28.70
2022-11-03T06:07:20.159Z,28.00
2022-11-03T06:08:20.343Z,18.80
2022-11-03T06:09:20.138Z,33.60
2022-11-03T06:10:20.178Z,18.80
2022-11-03T06:11:20.230Z,25.20
2022-11-03T06:12:20.166Z,24.80
2022-11-03T06:13:20.134Z,17.70
2022-11-03T06:14:24.052Z,22.70
2022-11-03T06:15:20.149Z,23.20
2022-11-03T06:16:20.172Z,24.90
2022-11-03T06:17:20.155Z,24.20
2022-11-03T06:18:20.175Z,19.20
2022-11-03T06:19:20.145Z,23.00
2022-11-03T06:20:25.100Z,22.80
2022-11-03T06:21:25.198Z,24.70
2022-11-03T06:22:25.174Z,26.50
2022-11-03T06:23:25.209Z,24.60
2022-11-03T06:24:25.194Z,24.40
2022-11-03T06:25:25.372Z,18.40
2022-11-03T06:26:25.223Z,20.70
2022-11-03T06:27:25.243Z,22.70
2022-11-03T06:28:25.596Z,21.30
2022-11-03T06:29:25.270Z,17.70
2022-11-03T06:30:25.249Z,21.30
2022-11-03T06:31:25.304Z,20.00
2022-11-03T06:32:25.271Z,27.80
2022-11-03T06:33:25.294Z,23.90
2022-11-03T06:34:25.284Z,22.00
2022-11-03T06:35:25.307Z,27.60
2022-11-03T06:36:25.296Z,26.80
2022-11-03T06:37:25.459Z,20.30
2022-11-03T06:38:25.306Z,24.40
2022-11-03T06:39:25.340Z,21.60
2022-11-03T06:40:25.338Z,24.70
2022-11-03T06:41:25.534Z,20.00
2022-11-03T06:42:30.728Z,19.50
2022-11-03T06:43:25.545Z,18.70
2022-11-03T06:44:25.413Z,20.20
2022-11-03T06:45:25.484Z,20.80
2022-11-03T06:46:25.455Z,21.60
2022-11-03T06:47:25.480Z,25.00
2022-11-03T06:48:25.478Z,22.60
2022-11-03T06:49:25.522Z,31.00
2022-11-03T06:50:25.488Z,17.00
2022-11-03T06:51:25.513Z,19.00
2022-11-03T06:52:25.612Z,20.10
2022-11-03T06:53:30.457Z,20.20
2022-11-03T06:54:30.580Z,18.90
2022-11-03T06:55:30.541Z,23.80
2022-11-03T06:56:30.590Z,25.80
2022-11-03T06:57:30.561Z,24.20
2022-11-03T06:58:30.613Z,18.80
2022-11-03T06:59:30.575Z,21.30
2022-11-03T07:00:35.547Z,20.90
2022-11-03T07:01:30.735Z,26.80
2022-11-03T07:02:30.685Z,21.30
2022-11-03T07:03:30.592Z,26.30
2022-11-03T07:04:30.629Z,19.20
2022-11-03T07:05:30.628Z,17.70
2022-11-03T07:06:30.653Z,19.40
2022-11-03T07:07:30.649Z,20.00
2022-11-03T07:08:34.569Z,20.90
2022-11-03T07:09:35.017Z,23.50
2022-11-03T07:10:34.665Z,23.00
2022-11-03T07:11:39.709Z,25.70
2022-11-03T07:12:39.798Z,20.30
2022-11-03T07:13:39.688Z,19.60
2022-11-03T07:14:39.721Z,20.40
2022-11-03T07:15:39.706Z,20.70
2022-11-03T07:16:39.745Z,21.10
2022-11-03T07:17:39.718Z,19.70
2022-11-03T07:18:39.743Z,25.00
2022-11-03T07:19:39.739Z,20.20
2022-11-03T07:20:39.779Z,27.40
2022-11-03T07:21:39.771Z,19.30
2022-11-03T07:22:39.790Z,17.80
2022-11-03T07:23:42.141Z,24.10
2022-11-03T07:24:39.807Z,23.10
2022-11-03T07:26:45.819Z,19.10
2022-11-03T07:27:45.837Z,22.20
2022-11-03T07:28:45.798Z,21.00
2022-11-03T07:31:39.768Z,23.70
2022-11-03T07:32:39.899Z,25.50
2022-11-03T07:33:39.864Z,24.30
2022-11-03T07:34:39.830Z,22.80
2022-11-03T07:36:08.464Z,20.30
2022-11-03T07:36:39.820Z,22.60
2022-11-03T07:37:39.866Z,25.10
2022-11-03T07:38:39.851Z,26.30
2022-11-03T07:39:39.885Z,23.10
2022-11-03T07:40:39.864Z,14.60
2022-11-03T07:41:39.901Z,22.80
2022-11-03T07:42:40.095Z,21.50
2022-11-03T07:43:45.831Z,29.30
2022-11-03T07:44:45.978Z,21.50
2022-11-03T07:45:45.934Z,24.70
2022-11-03T07:46:45.985Z,25.40
2022-11-03T07:47:45.968Z,22.70
2022-11-03T07:48:46.089Z,21.70
2022-11-03T07:49:45.990Z,22.20
2022-11-03T07:50:46.044Z,20.60
2022-11-03T07:51:46.008Z,23.30
2022-11-03T07:52:46.054Z,22.40
2022-11-03T07:53:46.034Z,20.30
2022-11-03T07:54:46.087Z,28.50
2022-11-03T07:55:46.063Z,21.00
2022-11-03T07:56:46.086Z,22.50
2022-11-03T07:57:46.061Z,19.30
2022-11-03T07:58:46.085Z,21.50
2022-11-03T07:59:46.069Z,16.80
2022-11-03T08:00:46.263Z,15.80
2022-11-03T08:01:46.262Z,26.10
2022-11-03T08:02:46.183Z,18.80
2022-11-03T08:03:46.117Z,24.60
2022-11-03T08:04:51.063Z,27.90
2022-11-03T08:05:51.254Z,21.80
2022-11-03T08:06:51.143Z,23.10
2022-11-03T08:07:57.063Z,22.50
2022-11-03T08:08:57.206Z,21.20
2022-11-03T08:09:57.199Z,24.10
2022-11-03T08:10:57.357Z,19.50
2022-11-03T08:11:57.201Z,25.20
2022-11-03T08:12:57.241Z,23.30
2022-11-03T08:13:57.619Z,19.40
2022-11-03T08:14:57.374Z,24.70
2022-11-03T08:15:57.257Z,19.20
2022-11-03T08:16:57.407Z,23.90
2022-11-03T08:17:57.285Z,21.80
2022-11-03T08:18:57.302Z,22.70
2022-11-03T08:19:57.279Z,24.40
2022-11-03T08:20:57.297Z,18.60
2022-11-03T08:21:57.297Z,23.40
2022-11-03T08:23:23.904Z,18.40
2022-11-03T08:23:57.295Z,23.90
2022-11-03T08:24:57.345Z,23.50
2022-11-03T08:25:57.422Z,20.70
2022-11-03T08:26:57.361Z,22.20
2022-11-03T08:27:57.364Z,25.90
2022-11-03T08:28:57.490Z,21.20
2022-11-03T08:29:57.390Z,19.30
2022-11-03T08:31:05.632Z,19.80
2022-11-03T08:32:03.432Z,21.20
2022-11-03T08:33:03.649Z,18.50
2022-11-03T08:34:03.557Z,22.10
2022-11-03T08:35:04.268Z,22.00
2022-11-03T08:36:08.493Z,23.10
2022-11-03T08:37:08.491Z,26.00
2022-11-03T08:38:08.726Z,22.50
2022-11-03T08:39:08.597Z,20.90
2022-11-03T08:40:08.504Z,20.80
2022-11-03T08:41:08.528Z,20.70
2022-11-03T08:42:08.507Z,17.40
2022-11-03T08:43:08.535Z,21.00
2022-11-03T08:44:08.531Z,23.70
2022-11-03T08:45:08.695Z,25.00
2022-11-03T08:46:16.770Z,20.70
2022-11-03T08:47:08.593Z,14.00
2022-11-03T08:48:09.008Z,17.70
2022-11-03T08:49:08.647Z,22.00
2022-11-03T08:50:08.638Z,17.70
2022-11-03T08:51:08.711Z,17.90
2022-11-03T08:52:08.699Z,18.60
2022-11-03T08:53:08.722Z,18.80
2022-11-03T08:54:08.722Z,20.70
2022-11-03T08:55:08.767Z,21.30
2022-11-03T08:56:12.169Z,22.80
2022-11-03T08:57:08.811Z,17.10
2022-11-03T08:58:09.117Z,22.80
2022-11-03T08:59:08.899Z,18.20
2022-11-03T09:00:08.868Z,22.40
2022-11-03T09:01:08.914Z,22.50
2022-11-03T09:02:09.016Z,22.00
2022-11-03T09:03:08.996Z,23.10
2022-11-03T09:04:09.054Z,22.50
2022-11-03T09:05:08.992Z,22.30
2022-11-03T09:06:09.051Z,17.70
2022-11-03T09:07:09.179Z,22.40
2022-11-03T09:10:28.454Z,17.40
2022-11-03T09:11:09.104Z,24.50
2022-11-03T09:12:09.118Z,20.90
2022-11-03T09:13:09.390Z,20.70
2022-11-03T09:14:09.172Z,18.50
2022-11-03T09:15:09.207Z,18.90
2022-11-03T09:16:13.122Z,24.00
2022-11-03T09:17:13.239Z,20.60
2022-11-03T09:18:13.382Z,20.70
2022-11-03T09:19:13.287Z,17.20
2022-11-03T09:20:13.238Z,17.80
2022-11-03T09:21:13.284Z,24.30
2022-11-03T09:22:13.280Z,18.80
2022-11-03T09:23:13.314Z,19.40
2022-11-03T09:24:13.310Z,24.30
2022-11-03T09:25:13.443Z,20.40
2022-11-03T09:26:13.329Z,20.80
2022-11-03T09:27:14.179Z,28.60
2022-11-03T09:28:19.291Z,18.20
2022-11-03T09:29:19.555Z,20.90
2022-11-03T09:30:19.417Z,18.30
2022-11-03T09:31:19.455Z,23.20
2022-11-03T09:32:23.281Z,18.10
2022-11-03T09:33:19.849Z,22.30
2022-11-03T09:34:19.525Z,25.60
2022-11-03T09:35:19.584Z,20.30
2022-11-03T09:36:19.564Z,19.90
2022-11-03T09:37:19.571Z,23.70
2022-11-03T09:38:19.579Z,20.00
2022-11-03T09:39:19.601Z,22.80
2022-11-03T09:40:19.711Z,21.20
2022-11-03T09:41:28.071Z,18.10
2022-11-03T09:42:19.625Z,23.10
2022-11-03T09:43:19.688Z,22.90
2022-11-03T09:44:19.636Z,17.10
2022-11-03T09:45:19.810Z,27.20
2022-11-03T09:46:19.830Z,18.10
2022-11-03T09:47:19.703Z,15.40
2022-11-03T09:48:19.715Z,22.30
2022-11-03T09:49:19.749Z,22.70
2022-11-03T09:50:19.766Z,20.50
2022-11-03T09:51:19.779Z,21.30
2022-11-03T09:52:19.819Z,23.40
2022-11-03T09:53:19.843Z,24.20
2022-11-03T09:54:19.860Z,22.40
2022-11-03T09:55:20.305Z,16.10
2022-11-03T09:56:19.885Z,15.10
2022-11-03T09:57:20.053Z,23.30
2022-11-03T09:58:19.931Z,20.20
2022-11-03T09:59:19.966Z,21.80
2022-11-03T10:00:20.052Z,25.70
2022-11-03T10:01:20.238Z,22.10
2022-11-03T10:02:20.282Z,19.80
2022-11-03T10:03:20.210Z,21.30
2022-11-03T10:04:20.077Z,24.70
2022-11-03T10:05:25.062Z,18.10
2022-11-03T10:06:25.182Z,20.30
2022-11-03T10:07:25.164Z,19.40
2022-11-03T10:08:25.271Z,17.40
2022-11-03T10:09:25.205Z,19.80
2022-11-03T10:10:25.263Z,16.70
2022-11-03T10:11:25.294Z,17.80
2022-11-03T10:12:25.316Z,19.90
2022-11-03T10:13:25.428Z,15.40
2022-11-03T10:14:25.387Z,21.10
2022-11-03T10:15:25.423Z,16.70
2022-11-03T10:16:31.340Z,18.10
2022-11-03T10:17:31.474Z,16.50
2022-11-03T10:18:31.666Z,18.90
2022-11-03T10:19:31.542Z,24.00
2022-11-03T10:20:31.574Z,16.00
2022-11-03T10:21:31.615Z,16.40
2022-11-03T10:22:31.614Z,15.80
2022-11-03T10:23:31.684Z,19.20
2022-11-03T10:24:31.656Z,16.00
2022-11-03T10:25:31.720Z,19.10
2022-11-03T10:26:31.705Z,14.90
2022-11-03T10:27:31.777Z,15.70
2022-11-03T10:28:31.870Z,20.10
2022-11-03T10:29:33.469Z,16.30
2022-11-03T10:30:36.272Z,22.70
2022-11-03T10:31:31.882Z,20.40
2022-11-03T10:32:31.883Z,15.90
2022-11-03T10:33:32.034Z,17.60
2022-11-03T10:34:31.960Z,14.10
2022-11-03T10:35:32.131Z,16.70
2022-11-03T10:36:32.006Z,15.40
2022-11-03T10:37:32.049Z,13.90
2022-11-03T10:38:32.161Z,16.30
2022-11-03T10:39:32.124Z,24.50
2022-11-03T10:40:47.333Z,19.60
2022-11-03T10:41:32.194Z,16.90
2022-11-03T10:42:35.774Z,12.50
2022-11-03T10:43:32.394Z,21.10
2022-11-03T10:44:32.278Z,18.40
2022-11-03T10:45:32.450Z,23.40
2022-11-03T10:46:50.697Z,20.40
2022-11-03T10:47:32.401Z,17.60
2022-11-03T10:48:32.443Z,16.80
2022-11-03T10:49:32.424Z,17.30
2022-11-03T10:50:32.468Z,17.70
2022-11-03T10:51:32.524Z,23.30
2022-11-03T10:52:32.547Z,12.90
2022-11-03T10:53:32.716Z,16.70
2022-11-03T10:54:32.581Z,14.70
2022-11-03T10:55:32.890Z,17.70
2022-11-03T10:56:32.643Z,14.50
2022-11-03T10:57:32.706Z,18.10
2022-11-03T10:58:32.700Z,20.50
2022-11-03T10:59:32.880Z,13.90
2022-11-03T11:00:32.743Z,16.80
2022-11-03T11:01:32.954Z,16.10
2022-11-03T11:02:32.904Z,17.70
2022-11-03T11:03:32.864Z,19.80
2022-11-03T11:04:32.997Z,17.70
2022-11-03T11:05:33.049Z,17.40
2022-11-03T11:06:33.392Z,21.10
2022-11-03T11:07:33.006Z,16.00
2022-11-03T11:08:33.037Z,17.40
2022-11-03T11:09:33.053Z,24.50
2022-11-03T11:10:33.046Z,17.80
2022-11-03T11:11:33.114Z,17.00
2022-11-03T11:12:33.088Z,18.10
2022-11-03T11:13:33.172Z,14.60
2022-11-03T11:14:33.144Z,17.00
2022-11-03T11:15:33.212Z,19.10
2022-11-03T11:16:33.245Z,16.10
2022-11-03T11:17:33.236Z,18.90
2022-11-03T11:18:33.244Z,17.30
2022-11-03T11:19:33.316Z,16.50
2022-11-03T11:20:33.297Z,15.80
2022-11-03T11:21:35.638Z,16.40
2022-11-03T11:22:33.354Z,14.80
2022-11-03T11:23:33.418Z,16.80
2022-11-03T11:24:33.447Z,14.70
2022-11-03T11:25:33.629Z,19.80
2022-11-03T11:26:33.514Z,18.50
2022-11-03T11:27:33.536Z,17.70
2022-11-03T11:28:33.565Z,22.30
2022-11-03T11:29:33.758Z,12.90
2022-11-03T11:30:33.589Z,18.60
2022-11-03T11:31:33.641Z,14.60
2022-11-03T11:32:33.636Z,16.30
2022-11-03T11:33:33.673Z,14.30
2022-11-03T11:34:33.692Z,14.20
2022-11-03T11:35:33.867Z,17.40
2022-11-03T11:36:33.757Z,12.60
2022-11-03T11:37:33.799Z,16.60
2022-11-03T11:38:33.804Z,12.80
2022-11-03T11:39:33.874Z,18.20
2022-11-03T11:40:33.883Z,21.10
2022-11-03T11:41:34.066Z,17.50
2022-11-03T11:42:36.450Z,12.40
2022-11-03T11:43:33.963Z,16.40
2022-11-03T11:44:33.977Z,15.70
2022-11-03T11:45:34.142Z,15.30
2022-11-03T11:46:34.069Z,13.40
2022-11-03T11:47:34.207Z,15.10
2022-11-03T11:48:34.132Z,21.20
2022-11-03T11:49:34.181Z,12.30
2022-11-03T11:50:34.203Z,13.00
2022-11-03T11:51:34.261Z,11.70
2022-11-03T11:52:34.377Z,14.60
2022-11-03T11:53:34.359Z,14.60
2022-11-03T11:56:28.472Z,11.50
2022-11-03T11:57:28.482Z,23.70
2022-11-03T11:58:28.506Z,14.00
2022-11-03T11:59:28.545Z,16.90
2022-11-03T12:00:28.558Z,17.60
2022-11-03T12:01:28.710Z,15.40
2022-11-03T12:02:33.548Z,12.90
2022-11-03T12:03:33.914Z,9.30
2022-11-03T12:04:33.705Z,15.90
2022-11-03T12:05:33.776Z,12.30
2022-11-03T12:06:33.988Z,15.60
2022-11-03T12:07:33.821Z,17.80
2022-11-03T12:08:33.971Z,15.40
2022-11-03T12:09:33.892Z,17.40
2022-11-03T12:10:33.917Z,15.00
2022-11-03T12:11:33.986Z,12.10
2022-11-03T12:12:33.963Z,13.30
2022-11-03T12:13:34.151Z,11.60
2022-11-03T12:14:34.016Z,13.30
2022-11-03T12:15:34.076Z,16.10
2022-11-03T12:16:34.218Z,16.70
2022-11-03T12:17:34.125Z,17.20
2022-11-03T12:18:39.185Z,10.60
2022-11-03T12:19:34.327Z,13.90
2022-11-03T12:20:34.197Z,12.30
2022-11-03T12:21:34.268Z,11.80
2022-11-03T12:22:34.260Z,16.90
2022-11-03T12:23:34.299Z,15.10
2022-11-03T12:24:34.306Z,14.80
2022-11-03T12:25:34.484Z,14.10
2022-11-03T12:26:34.511Z,14.10
2022-11-03T12:27:34.429Z,12.60
2022-11-03T12:28:34.430Z,10.80
2022-11-03T12:29:34.493Z,11.40
2022-11-03T12:30:39.616Z,17.80
2022-11-03T12:31:36.969Z,12.30
2022-11-03T12:32:35.477Z,16.80
2022-11-03T12:33:34.605Z,15.00
2022-11-03T12:34:34.622Z,16.80
2022-11-03T12:35:34.710Z,12.30
2022-11-03T12:36:34.688Z,16.50
2022-11-03T12:37:34.725Z,16.40
2022-11-03T12:38:35.136Z,15.00
2022-11-03T12:39:34.777Z,12.00
2022-11-03T12:40:34.926Z,16.30
2022-11-03T12:41:34.835Z,12.10
2022-11-03T12:42:34.851Z,13.70
2022-11-03T12:43:34.933Z,11.10
2022-11-03T12:44:36.064Z,13.20
2022-11-03T12:45:35.140Z,17.50
2022-11-03T12:46:35.187Z,13.80
2022-11-03T12:47:35.060Z,10.60
2022-11-03T12:48:35.092Z,15.90
2022-11-03T12:49:35.142Z,13.70
2022-11-03T12:50:35.188Z,14.70
2022-11-03T12:51:35.228Z,13.70
2022-11-03T12:52:35.214Z,11.90
2022-11-03T12:53:35.277Z,15.40
2022-11-03T12:54:35.320Z,15.50
2022-11-03T12:55:36.506Z,17.40
2022-11-03T12:56:35.484Z,18.70
2022-11-03T12:57:35.440Z,12.10
2022-11-03T12:58:35.470Z,14.90
2022-11-03T12:59:35.500Z,13.40
2022-11-03T13:00:35.536Z,14.30
2022-11-03T13:01:35.692Z,14.30
2022-11-03T13:02:35.834Z,12.80
2022-11-03T13:03:35.638Z,14.50
2022-11-03T13:04:35.661Z,12.70
2022-11-03T13:05:35.857Z,16.30
2022-11-03T13:06:35.826Z,17.30
2022-11-03T13:07:35.807Z,13.80
2022-11-03T13:08:35.825Z,14.90
2022-11-03T13:09:40.870Z,12.70